Time;durP1;ratioP1;P1;durP2;ratioP2;P2;SDS_P1;SDS_P2;PMS_P1;PMS_P2;Temp;Humidity;BMP_temperature;BMP_pressure;BME280_temperature;BME280_humidity;BME280_pressure;Samples;Min_cycle;Max_cycle;Signal;HPM_P1;HPM_P2
2021/09/08 00:01:07;;;;;;;9.00;4.43;;;19.30;83.50;;;;;;4994068;28;20029;-74
2021/09/08 00:03:32;;;;;;;8.90;4.50;;;19.30;83.40;;;;;;4994908;28;20460;-74
2021/09/08 00:05:59;;;;;;;8.73;4.38;;;19.30;83.40;;;;;;4994805;28;20027;-74
2021/09/08 00:08:25;;;;;;;9.88;4.38;;;19.30;83.40;;;;;;4994313;28;20072;-74
2021/09/08 00:10:51;;;;;;;8.32;4.00;;;19.30;83.40;;;;;;4994801;28;20022;-74
2021/09/08 00:13:17;;;;;;;7.78;4.05;;;19.30;83.30;;;;;;4994199;28;20037;-74
2021/09/08 00:15:42;;;;;;;7.55;4.18;;;19.20;83.40;;;;;;4994898;28;20482;-74
2021/09/08 00:18:08;;;;;;;8.05;3.92;;;19.20;83.40;;;;;;4994041;28;20109;-73
2021/09/08 00:20:34;;;;;;;7.55;3.80;;;19.20;83.30;;;;;;4994515;28;20039;-74
2021/09/08 00:22:59;;;;;;;7.95;4.60;;;19.20;83.40;;;;;;4994226;28;20387;-74
2021/09/08 00:25:25;;;;;;;7.40;4.13;;;19.20;83.30;;;;;;4993730;28;20030;-75
2021/09/08 00:27:51;;;;;;;8.00;3.92;;;19.20;83.20;;;;;;5009456;28;20077;-74
2021/09/08 00:30:18;;;;;;;9.10;3.90;;;19.20;83.20;;;;;;4993938;28;20018;-74
2021/09/08 00:32:43;;;;;;;10.57;4.18;;;19.20;83.20;;;;;;4994163;28;20061;-73
2021/09/08 00:35:09;;;;;;;8.30;4.43;;;19.10;83.20;;;;;;4993749;28;20100;-72
2021/09/08 00:37:39;;;;;;;8.82;4.47;;;19.10;83.40;;;;;;4994295;28;20022;-73
2021/09/08 00:40:06;;;;;;;6.97;3.78;;;19.10;83.50;;;;;;5009385;28;20026;-74
2021/09/08 00:42:32;;;;;;;7.65;4.13;;;19.10;84.00;;;;;;4993491;28;20348;-73
2021/09/08 00:44:57;;;;;;;8.45;4.20;;;19.10;83.30;;;;;;4994078;28;20073;-73
2021/09/08 00:47:23;;;;;;;10.32;3.95;;;19.00;83.10;;;;;;4992320;28;20510;-73
2021/09/08 00:49:49;;;;;;;8.55;4.13;;;19.00;83.10;;;;;;4993804;28;20125;-73
2021/09/08 00:52:16;;;;;;;11.20;4.47;;;19.00;83.30;;;;;;5008430;28;20022;-73
2021/09/08 00:54:49;;;;;;;7.85;4.50;;;19.00;83.30;;;;;;5009155;28;20076;-73
2021/09/08 00:57:17;;;;;;;7.72;4.03;;;19.00;83.20;;;;;;4992991;28;20096;-73
2021/09/08 00:59:43;;;;;;;7.65;4.30;;;19.00;83.20;;;;;;4993800;28;20018;-73
2021/09/08 01:02:09;;;;;;;7.68;4.10;;;18.90;83.20;;;;;;4993786;28;20041;-73
2021/09/08 01:04:35;;;;;;;9.63;4.22;;;18.90;83.30;;;;;;4993771;28;20455;-73
2021/09/08 01:07:02;;;;;;;8.02;3.90;;;18.90;83.40;;;;;;4993742;28;20033;-73
2021/09/08 01:09:29;;;;;;;7.57;4.28;;;18.90;83.40;;;;;;4993037;28;20026;-73
2021/09/08 01:11:55;;;;;;;11.05;4.00;;;18.90;83.40;;;;;;5008667;28;20371;-74
2021/09/08 01:14:21;;;;;;;9.25;4.13;;;18.90;83.40;;;;;;4992880;28;20207;-72
2021/09/08 01:16:51;;;;;;;7.93;4.00;;;18.90;83.20;;;;;;4994010;28;20536;-73
2021/09/08 01:19:17;;;;;;;6.13;3.53;;;18.90;83.30;;;;;;5008029;28;20025;-73
2021/09/08 01:21:43;;;;;;;7.38;3.55;;;18.80;83.10;;;;;;4992993;28;20054;-74
2021/09/08 01:24:09;;;;;;;7.57;3.88;;;18.80;83.10;;;;;;4993565;28;20355;-73
2021/09/08 01:26:36;;;;;;;7.50;3.80;;;18.80;83.20;;;;;;4992756;28;20030;-74
2021/09/08 01:29:03;;;;;;;8.38;4.47;;;18.80;83.20;;;;;;4993568;28;20064;-74
2021/09/08 01:31:29;;;;;;;9.43;4.30;;;18.80;83.20;;;;;;4992597;28;20467;-73
2021/09/08 01:33:54;;;;;;;8.35;4.70;;;18.80;83.20;;;;;;4993187;28;20041;-73
2021/09/08 01:36:20;;;;;;;8.00;4.07;;;18.80;83.30;;;;;;4992333;28;20022;-73
2021/09/08 01:38:46;;;;;;;9.23;4.15;;;18.80;83.30;;;;;;4993174;28;20060;-73
2021/09/08 01:41:11;;;;;;;9.90;4.70;;;18.80;83.30;;;;;;4992775;28;20046;-73
2021/09/08 01:43:38;;;;;;;10.38;4.30;;;18.80;83.20;;;;;;4992660;28;20042;-74
2021/09/08 01:46:04;;;;;;;8.52;4.38;;;18.70;83.10;;;;;;4993015;28;20023;-73
2021/09/08 01:48:30;;;;;;;10.43;4.13;;;18.70;83.10;;;;;;4992039;28;20332;-73
2021/09/08 01:50:56;;;;;;;8.07;3.40;;;18.70;83.20;;;;;;4993231;28;20034;-73
2021/09/08 01:53:23;;;;;;;11.18;5.22;;;18.70;83.10;;;;;;4992369;28;20037;-73
2021/09/08 01:55:49;;;;;;;9.98;5.03;;;18.70;83.10;;;;;;5024426;28;20033;-73
2021/09/08 01:58:16;;;;;;;9.20;4.70;;;18.70;83.10;;;;;;4991887;28;20019;-73
2021/09/08 02:00:43;;;;;;;10.82;4.43;;;18.70;83.10;;;;;;4992873;28;20033;-75
2021/09/08 02:03:08;;;;;;;9.05;4.63;;;18.70;83.00;;;;;;4992807;28;20026;-75
2021/09/08 02:05:34;;;;;;;9.93;4.28;;;18.60;83.00;;;;;;5007190;28;20253;-75
2021/09/08 02:07:59;;;;;;;9.68;5.10;;;18.60;83.20;;;;;;4992881;28;20018;-75
2021/09/08 02:10:25;;;;;;;10.10;5.00;;;18.60;83.20;;;;;;4992145;28;20053;-74
2021/09/08 02:12:51;;;;;;;10.32;5.10;;;18.60;83.30;;;;;;4992337;28;20030;-76
2021/09/08 02:15:16;;;;;;;8.02;4.40;;;18.60;83.60;;;;;;4992042;28;20102;-75
2021/09/08 02:17:42;;;;;;;8.98;4.40;;;18.60;83.50;;;;;;4992949;28;20406;-74
2021/09/08 02:20:09;;;;;;;7.80;4.88;;;18.60;83.50;;;;;;4992324;28;20030;-74
2021/09/08 02:22:35;;;;;;;9.38;4.95;;;18.60;83.60;;;;;;4991931;28;20032;-74
2021/09/08 02:25:01;;;;;;;9.07;4.97;;;18.50;83.50;;;;;;4992588;28;20102;-74
2021/09/08 02:27:27;;;;;;;8.98;5.05;;;18.60;83.80;;;;;;4991933;28;20052;-74
2021/09/08 02:29:53;;;;;;;9.27;4.22;;;18.50;83.70;;;;;;4992585;28;20058;-74
2021/09/08 02:32:19;;;;;;;8.32;5.05;;;18.50;83.80;;;;;;4991855;28;20072;-73
2021/09/08 02:34:44;;;;;;;10.48;5.13;;;18.50;83.90;;;;;;4992437;28;20076;-74
2021/09/08 02:37:10;;;;;;;7.75;4.72;;;18.50;83.80;;;;;;4992476;28;20026;-74
2021/09/08 02:39:36;;;;;;;8.80;4.85;;;18.50;83.80;;;;;;5006846;28;20559;-74
2021/09/08 02:42:02;;;;;;;9.43;5.00;;;18.50;84.00;;;;;;4992093;28;20556;-74
2021/09/08 02:44:28;;;;;;;9.27;5.25;;;18.50;84.10;;;;;;4991767;28;20026;-74
2021/09/08 02:46:53;;;;;;;10.73;5.22;;;18.50;84.20;;;;;;4991122;28;20105;-74
2021/09/08 02:49:19;;;;;;;11.30;5.25;;;18.40;84.10;;;;;;4991524;28;20023;-74
2021/09/08 02:51:44;;;;;;;10.27;5.55;;;18.50;84.30;;;;;;4992346;28;20033;-75
2021/09/08 02:54:10;;;;;;;11.43;5.28;;;18.40;84.30;;;;;;5023646;28;20062;-75
2021/09/08 02:56:36;;;;;;;9.45;5.43;;;18.40;84.40;;;;;;4991666;28;20061;-75
2021/09/08 02:59:01;;;;;;;8.93;4.07;;;18.40;84.30;;;;;;4991944;28;20116;-75
2021/09/08 03:01:27;;;;;;;9.60;5.43;;;18.40;84.30;;;;;;4991611;28;20054;-74
2021/09/08 03:03:53;;;;;;;9.40;5.28;;;18.30;84.40;;;;;;4992208;28;20030;-75
2021/09/08 03:06:19;;;;;;;11.00;6.07;;;18.30;84.40;;;;;;4991972;28;20022;-74
2021/09/08 03:08:44;;;;;;;10.52;4.55;;;18.30;84.40;;;;;;4991803;28;20042;-75
2021/09/08 03:11:10;;;;;;;11.23;5.60;;;18.20;84.40;;;;;;4993692;28;20026;-74
2021/09/08 03:13:36;;;;;;;12.23;5.85;;;18.30;84.40;;;;;;4994745;28;20442;-75
2021/09/08 03:16:01;;;;;;;10.18;5.00;;;18.20;84.30;;;;;;4995423;28;20030;-74
2021/09/08 03:18:27;;;;;;;11.38;5.25;;;18.20;84.30;;;;;;5026304;28;20030;-74
2021/09/08 03:20:53;;;;;;;10.48;5.30;;;18.20;84.40;;;;;;4995447;28;20042;-74
2021/09/08 03:23:18;;;;;;;10.00;5.13;;;18.20;84.40;;;;;;4995297;28;20039;-75
2021/09/08 03:25:44;;;;;;;9.80;5.03;;;18.20;84.50;;;;;;4995167;28;20045;-74
2021/09/08 03:28:10;;;;;;;10.85;4.88;;;18.20;84.60;;;;;;4995499;28;20062;-75
2021/09/08 03:30:36;;;;;;;8.45;5.30;;;18.20;84.70;;;;;;4994980;28;20027;-75
2021/09/08 03:33:02;;;;;;;11.82;5.15;;;18.20;84.80;;;;;;4995275;28;20105;-75
2021/09/08 03:35:28;;;;;;;10.43;5.15;;;18.20;84.90;;;;;;4995456;28;20027;-75
2021/09/08 03:37:54;;;;;;;11.00;5.35;;;18.20;84.90;;;;;;4995434;28;20023;-75
2021/09/08 03:40:20;;;;;;;10.02;5.22;;;18.20;84.90;;;;;;4995592;28;20023;-75
2021/09/08 03:42:46;;;;;;;11.77;5.50;;;18.10;84.90;;;;;;5009248;28;20030;-75
2021/09/08 03:45:13;;;;;;;10.45;5.18;;;18.10;84.90;;;;;;4994982;28;20026;-75
2021/09/08 03:47:39;;;;;;;10.23;5.25;;;18.10;85.00;;;;;;4994614;28;20034;-75
2021/09/08 03:50:05;;;;;;;10.25;4.82;;;18.10;85.10;;;;;;4995211;28;20027;-75
2021/09/08 03:52:31;;;;;;;11.18;4.78;;;18.10;85.10;;;;;;4994770;28;20096;-75
2021/09/08 03:54:58;;;;;;;11.25;4.97;;;18.10;85.10;;;;;;5026751;28;20026;-75
2021/09/08 03:57:23;;;;;;;8.38;4.70;;;18.10;85.10;;;;;;4994527;28;20034;-74
2021/09/08 03:59:49;;;;;;;11.60;5.45;;;18.10;85.20;;;;;;4994747;28;20031;-75
2021/09/08 04:02:15;;;;;;;9.52;5.10;;;18.10;85.20;;;;;;4994649;28;20031;-75
2021/09/08 04:04:40;;;;;;;11.90;5.00;;;18.00;85.30;;;;;;4994259;28;20050;-75
2021/09/08 04:07:06;;;;;;;9.73;4.57;;;18.00;85.40;;;;;;4994635;28;20065;-75
2021/09/08 04:09:32;;;;;;;10.30;5.63;;;18.00;85.50;;;;;;4994209;28;20032;-74
2021/09/08 04:11:58;;;;;;;10.70;5.63;;;18.00;85.50;;;;;;4994720;28;20065;-73
2021/09/08 04:14:24;;;;;;;8.88;4.97;;;18.00;85.60;;;;;;4994256;28;20018;-74
2021/09/08 04:16:49;;;;;;;10.73;5.78;;;18.00;85.70;;;;;;4994683;28;20030;-75
2021/09/08 04:19:15;;;;;;;10.77;5.57;;;17.90;85.80;;;;;;4994648;28;20317;-75
2021/09/08 04:21:41;;;;;;;12.30;5.68;;;17.90;85.80;;;;;;4993317;28;20046;-74
2021/09/08 04:24:06;;;;;;;9.93;5.05;;;17.90;85.90;;;;;;5026099;28;20026;-74
2021/09/08 04:26:32;;;;;;;10.00;5.05;;;17.90;85.80;;;;;;5029334;28;20106;-74
2021/09/08 04:28:58;;;;;;;11.80;5.50;;;17.90;86.00;;;;;;5000668;28;20053;-74
2021/09/08 04:31:23;;;;;;;13.10;4.95;;;17.90;86.00;;;;;;5001623;28;20148;-74
2021/09/08 04:33:49;;;;;;;10.50;5.20;;;17.90;86.00;;;;;;5001242;28;20105;-74
2021/09/08 04:36:15;;;;;;;11.68;6.10;;;17.90;86.00;;;;;;5003335;28;20149;-74
2021/09/08 04:38:45;;;;;;;11.38;5.47;;;17.80;86.00;;;;;;5000140;28;20053;-74
2021/09/08 04:41:11;;;;;;;11.60;5.20;;;17.80;86.10;;;;;;5000724;28;20463;-74
2021/09/08 04:43:38;;;;;;;9.13;5.32;;;17.80;86.20;;;;;;5000583;28;20057;-74
2021/09/08 04:46:04;;;;;;;9.75;4.93;;;17.80;86.20;;;;;;5005662;28;20052;-74
2021/09/08 04:48:29;;;;;;;10.38;5.63;;;17.80;86.20;;;;;;5006058;28;20026;-74
2021/09/08 04:50:55;;;;;;;10.48;5.82;;;17.80;86.20;;;;;;5011496;28;20108;-74
2021/09/08 04:53:21;;;;;;;11.48;6.00;;;17.80;86.20;;;;;;5008536;28;20045;-74
2021/09/08 04:55:47;;;;;;;10.57;5.22;;;17.80;86.30;;;;;;4999774;28;20101;-74
2021/09/08 04:58:13;;;;;;;12.45;5.85;;;17.80;86.30;;;;;;5018671;28;20029;-76
2021/09/08 05:00:39;;;;;;;11.25;5.80;;;17.80;86.30;;;;;;5007189;28;20030;-76
2021/09/08 05:03:05;;;;;;;12.70;5.15;;;17.80;86.30;;;;;;4998107;28;20104;-76
2021/09/08 05:05:31;;;;;;;11.75;5.82;;;17.80;86.40;;;;;;4991439;28;20360;-72
2021/09/08 05:07:56;;;;;;;11.30;5.85;;;17.70;86.30;;;;;;4992826;28;20521;-73
2021/09/08 05:10:22;;;;;;;10.30;5.30;;;17.80;86.40;;;;;;4992909;28;20336;-73
2021/09/08 05:12:47;;;;;;;10.93;5.85;;;17.70;86.40;;;;;;5005561;28;20030;-76
2021/09/08 05:15:13;;;;;;;11.27;5.75;;;17.70;86.50;;;;;;5012191;28;20026;-73
2021/09/08 05:17:39;;;;;;;11.02;5.40;;;17.70;87.10;;;;;;4996170;28;20084;-76
2021/09/08 05:20:06;;;;;;;14.20;5.88;;;17.70;86.50;;;;;;5008195;28;20465;-75
2021/09/08 05:22:31;;;;;;;11.93;6.18;;;17.70;86.50;;;;;;5008483;28;20030;-74
2021/09/08 05:24:57;;;;;;;10.38;5.10;;;17.70;86.50;;;;;;4993287;28;20022;-79
2021/09/08 05:27:23;;;;;;;9.70;5.68;;;17.70;86.60;;;;;;4993318;28;20014;-76
2021/09/08 05:29:48;;;;;;;17.73;6.15;;;17.70;86.60;;;;;;4992362;28;20034;-75
2021/09/08 05:32:14;;;;;;;11.43;6.00;;;17.70;86.60;;;;;;4992489;28;20427;-74
2021/09/08 05:34:40;;;;;;;12.32;6.25;;;17.70;86.60;;;;;;4991826;28;20026;-74
2021/09/08 05:37:05;;;;;;;10.20;5.40;;;17.70;86.70;;;;;;4993177;28;20316;-75
2021/09/08 05:39:31;;;;;;;14.02;6.57;;;17.70;86.70;;;;;;5009409;28;20542;-73
2021/09/08 05:41:57;;;;;;;12.80;6.95;;;17.70;86.80;;;;;;5007819;28;20045;-73
2021/09/08 05:44:22;;;;;;;12.85;6.90;;;17.70;86.70;;;;;;5001997;28;20022;-74
2021/09/08 05:46:48;;;;;;;10.93;5.90;;;17.70;86.80;;;;;;5000676;28;20057;-73
2021/09/08 05:49:14;;;;;;;10.07;5.70;;;17.70;86.80;;;;;;4992169;28;20113;-74
2021/09/08 05:51:40;;;;;;;11.80;6.00;;;17.70;86.80;;;;;;5006318;28;20057;-73
2021/09/08 05:54:09;;;;;;;11.93;5.90;;;17.70;86.90;;;;;;4992651;28;20018;-74
2021/09/08 05:56:35;;;;;;;14.30;6.20;;;17.70;86.80;;;;;;4991930;28;20050;-73
2021/09/08 05:59:01;;;;;;;10.63;6.10;;;17.70;87.30;;;;;;4992407;28;20096;-74
2021/09/08 06:01:27;;;;;;;11.20;5.35;;;17.70;86.60;;;;;;4992565;28;20052;-73
2021/09/08 06:03:52;;;;;;;12.18;5.88;;;17.70;86.70;;;;;;4992049;28;20077;-74
2021/09/08 06:06:18;;;;;;;15.43;6.18;;;17.80;86.70;;;;;;4992605;28;20026;-74
2021/09/08 06:08:44;;;;;;;11.40;5.78;;;17.70;86.70;;;;;;4992011;28;20142;-73
2021/09/08 06:11:10;;;;;;;12.75;7.03;;;17.70;86.80;;;;;;4992740;28;20026;-73
2021/09/08 06:13:36;;;;;;;11.52;6.18;;;17.80;86.90;;;;;;4992183;28;20034;-73
2021/09/08 06:16:02;;;;;;;11.50;6.28;;;17.80;86.80;;;;;;4992450;28;20517;-73
2021/09/08 06:18:27;;;;;;;14.30;6.03;;;17.80;86.80;;;;;;4992125;28;20026;-73
2021/09/08 06:20:53;;;;;;;11.80;6.00;;;17.80;86.90;;;;;;4991183;28;20050;-73
2021/09/08 06:23:19;;;;;;;11.32;6.35;;;17.90;86.90;;;;;;4992364;28;20037;-73
2021/09/08 06:25:45;;;;;;;9.70;5.07;;;17.90;86.80;;;;;;4991460;28;20073;-73
2021/09/08 06:28:10;;;;;;;14.48;6.45;;;17.90;86.70;;;;;;4992094;28;20018;-73
2021/09/08 06:30:36;;;;;;;10.90;6.07;;;17.90;86.60;;;;;;4991702;28;20101;-73
2021/09/08 06:33:02;;;;;;;10.57;5.60;;;17.90;86.60;;;;;;4992169;28;20398;-73
2021/09/08 06:35:27;;;;;;;12.15;6.10;;;17.90;86.60;;;;;;5007093;28;20025;-73
2021/09/08 06:37:53;;;;;;;10.68;5.15;;;17.90;86.60;;;;;;4991559;28;20428;-74
2021/09/08 06:40:19;;;;;;;10.77;6.10;;;18.00;86.50;;;;;;4992173;28;20478;-74
2021/09/08 06:42:45;;;;;;;11.98;6.03;;;18.00;86.40;;;;;;5006597;28;20030;-73
2021/09/08 06:45:11;;;;;;;13.80;6.07;;;18.00;86.30;;;;;;4993875;28;20110;-73
2021/09/08 06:47:36;;;;;;;10.45;5.38;;;18.00;86.20;;;;;;4995627;28;20089;-73
2021/09/08 06:50:03;;;;;;;9.93;5.22;;;18.00;86.10;;;;;;5011276;28;20084;-73
2021/09/08 06:52:29;;;;;;;12.07;5.78;;;18.00;86.10;;;;;;4996130;28;20033;-73
2021/09/08 06:54:54;;;;;;;11.82;5.97;;;18.10;86.10;;;;;;4995405;28;20031;-73
2021/09/08 06:57:20;;;;;;;11.65;5.88;;;18.10;86.00;;;;;;4996113;28;20048;-74
2021/09/08 06:59:46;;;;;;;13.75;6.03;;;18.10;85.90;;;;;;4995288;28;20472;-73
2021/09/08 07:02:12;;;;;;;12.27;6.20;;;18.20;86.00;;;;;;4995906;28;20038;-73
2021/09/08 07:04:38;;;;;;;12.55;6.20;;;18.20;86.00;;;;;;4995272;28;20315;-73
2021/09/08 07:07:04;;;;;;;12.45;6.22;;;18.30;85.90;;;;;;5010590;28;20022;-73
2021/09/08 07:09:31;;;;;;;11.90;6.30;;;18.30;85.90;;;;;;4995540;28;20033;-73
2021/09/08 07:11:56;;;;;;;12.10;6.40;;;18.30;85.90;;;;;;5010198;28;20241;-73
2021/09/08 07:14:22;;;;;;;11.25;6.10;;;18.40;85.80;;;;;;4995839;28;20072;-73
2021/09/08 07:16:48;;;;;;;9.85;5.25;;;18.40;85.70;;;;;;4995164;28;20034;-73
2021/09/08 07:19:13;;;;;;;10.45;5.68;;;18.40;85.60;;;;;;4995352;28;20023;-74
2021/09/08 07:21:39;;;;;;;10.75;5.80;;;18.40;85.60;;;;;;4995235;28;20054;-73
2021/09/08 07:24:05;;;;;;;11.98;6.28;;;18.50;85.70;;;;;;4995605;28;20030;-73
2021/09/08 07:26:34;;;;;;;11.13;5.55;;;18.50;85.60;;;;;;4995433;28;20030;-74
2021/09/08 07:29:05;;;;;;;11.50;6.70;;;18.50;85.60;;;;;;4994934;28;20589;-75
2021/09/08 07:31:32;;;;;;;9.00;5.38;;;18.60;85.80;;;;;;5010656;28;20371;-73
2021/09/08 07:33:58;;;;;;;10.82;6.35;;;18.60;85.90;;;;;;4994761;28;20034;-74
2021/09/08 07:36:23;;;;;;;12.23;5.70;;;18.60;86.00;;;;;;4995351;28;20466;-73
2021/09/08 07:38:50;;;;;;;12.93;5.65;;;18.70;86.10;;;;;;4994720;28;20064;-73
2021/09/08 07:41:17;;;;;;;11.57;6.63;;;18.70;86.10;;;;;;5010231;28;20022;-73
2021/09/08 07:43:43;;;;;;;13.82;6.43;;;18.70;85.90;;;;;;4994726;28;20038;-73
2021/09/08 07:46:10;;;;;;;9.40;5.40;;;18.70;85.80;;;;;;4995341;28;20033;-73
2021/09/08 07:48:36;;;;;;;13.50;5.50;;;18.80;85.90;;;;;;4995290;28;20029;-73
2021/09/08 07:51:02;;;;;;;13.70;6.22;;;18.80;85.80;;;;;;4994200;28;20030;-73
2021/09/08 07:53:28;;;;;;;12.25;5.88;;;18.80;85.90;;;;;;5010164;28;20406;-75
2021/09/08 07:55:53;;;;;;;14.15;6.25;;;18.90;85.90;;;;;;4994314;28;20026;-76
2021/09/08 07:58:19;;;;;;;9.57;5.28;;;18.90;85.90;;;;;;4994521;28;20441;-75
2021/09/08 08:00:45;;;;;;;13.15;6.68;;;19.00;85.80;;;;;;4994340;28;20029;-75
2021/09/08 08:03:10;;;;;;;10.90;5.75;;;19.00;85.60;;;;;;4994779;28;20053;-75
2021/09/08 08:05:36;;;;;;;12.30;6.18;;;19.10;85.60;;;;;;5009623;28;20076;-75
2021/09/08 08:08:02;;;;;;;11.68;6.18;;;19.10;85.60;;;;;;4993903;28;20493;-72
2021/09/08 08:10:28;;;;;;;10.45;5.78;;;19.10;85.50;;;;;;4994724;28;20019;-73
2021/09/08 08:12:54;;;;;;;11.85;6.15;;;19.20;85.50;;;;;;4994054;28;20030;-73
2021/09/08 08:15:20;;;;;;;12.00;5.80;;;19.20;85.40;;;;;;4994820;28;20034;-72
2021/09/08 08:17:46;;;;;;;11.48;5.68;;;19.30;85.40;;;;;;4994058;28;20324;-72
2021/09/08 08:20:14;;;;;;;13.25;6.80;;;19.30;85.30;;;;;;4994492;28;20077;-73
2021/09/08 08:22:41;;;;;;;11.20;5.60;;;19.40;85.20;;;;;;5009828;28;20089;-73
2021/09/08 08:25:10;;;;;;;11.40;4.90;;;19.40;85.10;;;;;;4995289;28;20034;-73
2021/09/08 08:27:36;;;;;;;10.77;5.75;;;19.40;85.10;;;;;;4994469;28;20050;-73
2021/09/08 08:30:03;;;;;;;10.05;5.05;;;19.40;85.00;;;;;;4993445;28;20477;-73
2021/09/08 08:32:29;;;;;;;10.73;4.70;;;19.50;84.90;;;;;;4994050;28;20025;-73
2021/09/08 08:34:57;;;;;;;12.75;5.95;;;19.50;84.80;;;;;;4993827;28;20425;-75
2021/09/08 08:37:23;;;;;;;10.45;5.43;;;19.60;84.70;;;;;;5009319;28;20088;-75
2021/09/08 08:39:49;;;;;;;10.52;5.88;;;19.70;84.60;;;;;;4993583;28;20434;-75
2021/09/08 08:42:21;;;;;;;12.93;5.63;;;19.70;84.50;;;;;;4993976;28;20037;-75
2021/09/08 08:44:49;;;;;;;11.90;6.25;;;19.80;84.40;;;;;;4993681;28;20031;-75
2021/09/08 08:47:14;;;;;;;13.63;5.82;;;19.80;84.30;;;;;;5008974;28;20019;-75
2021/09/08 08:49:41;;;;;;;12.55;5.80;;;19.80;84.30;;;;;;4994047;28;20459;-75
2021/09/08 08:52:07;;;;;;;11.15;5.10;;;19.90;84.30;;;;;;4993366;28;20035;-75
2021/09/08 08:54:32;;;;;;;11.25;5.68;;;19.90;84.30;;;;;;4993874;28;20022;-75
2021/09/08 08:56:58;;;;;;;9.73;5.78;;;19.90;84.20;;;;;;4993234;28;20105;-76
2021/09/08 08:59:24;;;;;;;11.80;5.50;;;19.90;84.20;;;;;;4993900;28;20037;-75
2021/09/08 09:01:49;;;;;;;10.90;5.88;;;20.00;84.10;;;;;;5008211;28;20050;-73
2021/09/08 09:04:17;;;;;;;11.13;6.07;;;20.10;84.10;;;;;;4993448;28;20034;-74
2021/09/08 09:06:46;;;;;;;11.82;6.70;;;20.10;83.90;;;;;;4993350;28;20402;-74
2021/09/08 09:09:17;;;;;;;11.13;6.35;;;20.20;83.90;;;;;;4992404;28;20096;-74
2021/09/08 09:11:48;;;;;;;12.13;5.88;;;20.20;83.70;;;;;;4993718;28;20031;-74
2021/09/08 09:14:15;;;;;;;9.65;4.28;;;20.30;83.60;;;;;;5008607;28;20026;-74
2021/09/08 09:16:42;;;;;;;9.75;5.50;;;20.40;83.40;;;;;;4993446;28;20110;-74
2021/09/08 09:19:10;;;;;;;13.05;5.75;;;20.40;83.40;;;;;;4992739;28;20026;-74
2021/09/08 09:21:36;;;;;;;8.30;4.82;;;20.40;83.40;;;;;;4993473;28;20054;-74
2021/09/08 09:24:05;;;;;;;12.27;5.85;;;20.50;83.40;;;;;;4992653;28;20097;-74
2021/09/08 09:26:42;;;;;;;12.43;5.90;;;20.50;83.40;;;;;;4993204;28;20019;-74
2021/09/08 09:29:18;;;;;;;12.02;5.70;;;20.50;83.20;;;;;;4992513;28;20077;-74
2021/09/08 09:31:56;;;;;;;12.65;5.78;;;20.60;83.00;;;;;;4993387;28;20022;-74
2021/09/08 09:34:23;;;;;;;10.25;5.50;;;20.70;82.80;;;;;;5008604;28;20026;-74
2021/09/08 09:36:53;;;;;;;11.88;5.30;;;20.70;82.70;;;;;;5007480;28;20118;-73
2021/09/08 09:39:20;;;;;;;11.37;6.10;;;20.80;82.50;;;;;;4993058;28;20031;-74
2021/09/08 09:41:46;;;;;;;9.57;5.68;;;20.90;82.20;;;;;;4992743;28;20515;-74
2021/09/08 09:44:14;;;;;;;10.60;5.57;;;21.00;82.00;;;;;;4992033;28;20107;-74
2021/09/08 09:46:46;;;;;;;14.43;6.72;;;21.00;81.90;;;;;;4992961;28;20033;-74
2021/09/08 09:49:13;;;;;;;11.30;6.28;;;21.10;81.70;;;;;;4992250;28;20037;-73
2021/09/08 09:51:40;;;;;;;10.35;5.53;;;21.20;81.50;;;;;;5008250;28;20029;-74
2021/09/08 09:54:06;;;;;;;10.82;5.78;;;21.30;81.30;;;;;;4991928;28;20141;-74
2021/09/08 09:56:32;;;;;;;11.05;5.25;;;21.30;81.10;;;;;;4992657;28;20022;-74
2021/09/08 09:58:58;;;;;;;9.10;4.50;;;21.50;80.90;;;;;;4992037;28;20038;-73
2021/09/08 10:01:25;;;;;;;11.52;6.13;;;21.50;80.60;;;;;;4992573;28;20029;-74
2021/09/08 10:03:51;;;;;;;10.52;4.82;;;21.60;80.60;;;;;;4991838;28;20034;-73
2021/09/08 10:06:18;;;;;;;10.45;4.95;;;21.60;81.20;;;;;;4992531;28;20026;-74
2021/09/08 10:08:47;;;;;;;10.00;5.20;;;21.60;80.50;;;;;;4992568;28;20026;-74
2021/09/08 10:11:20;;;;;;;10.10;4.63;;;21.70;80.50;;;;;;4991716;28;20410;-74
2021/09/08 10:14:00;;;;;;;11.32;5.30;;;21.80;80.30;;;;;;5007686;28;20121;-74
2021/09/08 10:16:27;;;;;;;7.47;4.13;;;21.90;80.00;;;;;;4992707;28;20540;-74
2021/09/08 10:18:53;;;;;;;10.30;5.90;;;22.00;79.90;;;;;;4991820;28;20030;-74
2021/09/08 10:21:20;;;;;;;11.90;6.15;;;22.10;79.70;;;;;;4992102;28;20046;-74
2021/09/08 10:23:59;;;;;;;10.15;5.82;;;22.00;79.60;;;;;;4992378;28;20460;-73
2021/09/08 10:26:30;;;;;;;12.13;5.65;;;22.10;79.30;;;;;;5007350;28;20040;-74
2021/09/08 10:29:05;;;;;;;10.43;5.18;;;22.20;79.10;;;;;;4991785;28;20023;-73
2021/09/08 10:31:33;;;;;;;9.90;4.90;;;22.30;78.80;;;;;;5007507;28;20026;-73
2021/09/08 10:33:59;;;;;;;7.72;4.35;;;22.40;78.70;;;;;;4991643;28;20023;-73
2021/09/08 10:36:26;;;;;;;11.30;6.07;;;22.40;78.60;;;;;;4992336;28;20040;-74
2021/09/08 10:39:08;;;;;;;12.00;5.75;;;22.40;78.60;;;;;;5006877;28;20022;-73
2021/09/08 10:41:39;;;;;;;13.02;5.10;;;22.50;78.30;;;;;;4992117;28;20031;-74
2021/09/08 10:44:06;;;;;;;7.25;3.63;;;22.60;78.00;;;;;;4991502;28;20114;-73
2021/09/08 10:46:52;;;;;;;9.70;4.47;;;22.70;77.90;;;;;;4992203;28;20034;-73
2021/09/08 10:49:36;;;;;;;8.13;4.30;;;22.80;77.80;;;;;;4992203;28;20031;-74
2021/09/08 10:52:05;;;;;;;6.82;3.95;;;22.80;77.70;;;;;;4991744;28;20034;-73
2021/09/08 10:54:31;;;;;;;8.05;4.07;;;22.80;77.60;;;;;;4991879;28;20070;-74
2021/09/08 10:56:58;;;;;;;9.52;4.95;;;23.00;77.30;;;;;;4991442;28;20348;-73
2021/09/08 10:59:24;;;;;;;9.65;5.50;;;23.10;76.90;;;;;;4992008;28;20022;-74
2021/09/08 11:01:53;;;;;;;8.52;4.80;;;23.20;76.70;;;;;;4991707;28;20121;-73
2021/09/08 11:04:19;;;;;;;10.77;5.65;;;23.40;76.40;;;;;;4992111;28;20032;-73
2021/09/08 11:06:48;;;;;;;9.73;4.30;;;23.50;76.20;;;;;;5006844;28;20018;-74
2021/09/08 11:09:16;;;;;;;9.27;4.63;;;23.50;76.00;;;;;;4991273;28;20030;-74
2021/09/08 11:11:58;;;;;;;8.23;4.75;;;23.50;76.00;;;;;;4991795;28;20061;-74
2021/09/08 11:14:47;;;;;;;9.95;4.63;;;23.60;75.90;;;;;;4991837;28;20101;-74
2021/09/08 11:17:20;;;;;;;8.85;4.65;;;23.60;75.80;;;;;;4991334;28;20113;-74
2021/09/08 11:19:51;;;;;;;8.20;4.45;;;23.60;75.60;;;;;;4991912;28;20053;-75
2021/09/08 11:22:17;;;;;;;12.80;5.53;;;23.70;75.70;;;;;;4990860;28;20068;-74
2021/09/08 11:24:42;;;;;;;9.40;5.15;;;23.70;75.40;;;;;;4992237;28;20478;-74
2021/09/08 11:27:08;;;;;;;6.75;3.65;;;23.90;75.10;;;;;;4990963;28;20026;-75
2021/09/08 11:29:34;;;;;;;7.82;3.97;;;24.00;74.80;;;;;;4991911;28;20032;-75
2021/09/08 11:32:00;;;;;;;9.45;4.53;;;24.10;74.60;;;;;;4992164;28;20034;-74
2021/09/08 11:34:28;;;;;;;10.05;4.72;;;24.20;74.50;;;;;;4995104;28;20027;-74
2021/09/08 11:36:56;;;;;;;8.60;4.40;;;24.20;74.40;;;;;;4995341;28;20018;-75
2021/09/08 11:39:24;;;;;;;8.13;4.13;;;24.30;74.30;;;;;;4995545;28;20126;-73
2021/09/08 11:42:08;;;;;;;7.97;4.10;;;24.40;74.10;;;;;;4994936;28;20129;-74
2021/09/08 11:44:34;;;;;;;9.73;4.43;;;24.50;73.90;;;;;;4995662;28;20493;-74
2021/09/08 11:47:00;;;;;;;7.35;4.07;;;24.70;73.50;;;;;;4994518;28;20029;-73
2021/09/08 11:49:25;;;;;;;6.68;3.80;;;24.80;73.10;;;;;;4994827;28;20098;-74
2021/09/08 11:51:52;;;;;;;6.95;4.18;;;24.90;72.80;;;;;;4995043;28;20026;-74
2021/09/08 11:54:20;;;;;;;7.35;4.47;;;25.00;72.30;;;;;;4994728;28;20047;-74
2021/09/08 11:56:59;;;;;;;7.07;4.15;;;25.20;72.00;;;;;;5010213;28;20050;-76
2021/09/08 11:59:34;;;;;;;7.88;4.57;;;25.30;71.80;;;;;;4994819;28;20026;-76
2021/09/08 12:02:00;;;;;;;6.70;4.00;;;25.40;71.30;;;;;;4993854;28;20343;-73
2021/09/08 12:04:28;;;;;;;9.07;4.60;;;25.50;71.40;;;;;;4995004;28;20026;-74
2021/09/08 12:06:57;;;;;;;6.15;3.58;;;25.50;71.20;;;;;;4994972;28;20030;-74
2021/09/08 12:09:28;;;;;;;9.23;4.43;;;25.60;71.20;;;;;;4994412;28;20141;-74
2021/09/08 12:12:04;;;;;;;8.85;4.63;;;25.60;71.00;;;;;;4994890;28;20435;-74
2021/09/08 12:14:33;;;;;;;6.65;3.72;;;25.70;70.70;;;;;;4994752;28;20076;-74
2021/09/08 12:17:12;;;;;;;8.15;4.22;;;25.80;70.60;;;;;;5008764;28;20073;-75
2021/09/08 12:19:46;;;;;;;6.47;3.55;;;25.80;70.40;;;;;;4994624;28;20467;-75
2021/09/08 12:22:15;;;;;;;6.35;3.72;;;25.80;69.90;;;;;;4994019;28;20233;-75
2021/09/08 12:24:50;;;;;;;8.02;4.25;;;25.80;70.00;;;;;;4994542;28;20027;-75
2021/09/08 12:27:26;;;;;;;6.75;3.50;;;25.80;70.30;;;;;;5008835;28;20469;-76
2021/09/08 12:30:14;;;;;;;6.65;4.22;;;25.80;69.80;;;;;;5009296;28;20030;-75
2021/09/08 12:32:54;;;;;;;7.35;4.38;;;25.70;69.80;;;;;;4994045;28;20054;-74
2021/09/08 12:35:53;;;;;;;6.55;4.35;;;25.70;69.30;;;;;;4993635;28;20320;-74
2021/09/08 12:38:40;;;;;;;6.20;3.40;;;25.70;69.40;;;;;;5008881;28;20242;-75
2021/09/08 12:41:16;;;;;;;6.30;3.30;;;25.60;69.40;;;;;;4993610;28;20027;-74